Time;durP1;ratioP1;P1;durP2;ratioP2;P2;SDS_P1;SDS_P2;PMS_P1;PMS_P2;Temp;Humidity;BMP_temperature;BMP_pressure;BME280_temperature;BME280_humidity;BME280_pressure;Samples;Min_cycle;Max_cycle;Signal;HPM_P1;HPM_P2
2023/10/26 00:02:06;;;;;;;2.40;2.20;;;;;;;12.39;92.50;96232.34;5093037;28;20023;-72
2023/10/26 00:04:32;;;;;;;2.60;2.40;;;;;;;12.43;92.71;96222.56;5076588;28;20035;-73
2023/10/26 00:06:58;;;;;;;3.45;2.20;;;;;;;12.43;93.12;96227.16;5092788;28;20032;-71
2023/10/26 00:09:23;;;;;;;2.00;1.90;;;;;;;12.41;92.73;96227.47;5096679;28;20093;-72
2023/10/26 00:11:49;;;;;;;2.47;1.80;;;;;;;12.44;92.47;96232.25;5114413;28;20035;-73
2023/10/26 00:14:15;;;;;;;1.95;1.85;;;;;;;12.39;92.87;96218.84;5076637;28;20043;-72
2023/10/26 00:16:40;;;;;;;1.92;1.80;;;;;;;12.39;93.63;96235.03;5079775;28;20031;-72
2023/10/26 00:19:06;;;;;;;1.60;1.50;;;;;;;12.44;93.79;96243.03;5096595;28;20031;-72
2023/10/26 00:21:31;;;;;;;1.98;1.88;;;;;;;12.39;93.27;96235.03;5096026;28;20041;-72
2023/10/26 00:23:56;;;;;;;1.90;1.80;;;;;;;12.33;93.97;96230.88;5096839;28;20089;-70
2023/10/26 00:26:22;;;;;;;2.10;1.90;;;;;;;12.40;93.84;96236.66;5091876;28;20028;-70
2023/10/26 00:28:49;;;;;;;2.95;2.10;;;;;;;12.38;94.08;96238.06;5087379;28;20086;-69
2023/10/26 00:31:15;;;;;;;2.35;1.98;;;;;;;12.36;93.96;96230.28;5089632;27;20031;-69
2023/10/26 00:33:40;;;;;;;2.17;2.08;;;;;;;12.36;94.43;96240.25;5125265;27;20043;-69
2023/10/26 00:36:06;;;;;;;2.53;2.20;;;;;;;12.25;94.17;96223.47;5110117;27;20023;-69
2023/10/26 00:38:31;;;;;;;2.30;2.10;;;;;;;12.24;94.36;96232.69;5088369;27;20031;-69
2023/10/26 00:40:57;;;;;;;2.95;2.53;;;;;;;12.33;94.94;96235.47;5118713;27;20024;-69
2023/10/26 00:43:23;;;;;;;2.70;2.50;;;;;;;12.35;94.60;96241.34;5088174;27;20478;-70
2023/10/26 00:45:52;;;;;;;2.75;2.55;;;;;;;12.38;94.37;96238.88;5098368;27;20088;-71
2023/10/26 00:48:21;;;;;;;2.85;2.63;;;;;;;12.39;94.27;96235.03;5115858;27;20096;-70
2023/10/26 00:50:47;;;;;;;3.28;2.90;;;;;;;12.31;94.82;96238.47;5081971;28;20019;-72
2023/10/26 00:53:14;;;;;;;3.30;3.00;;;;;;;12.31;94.93;96238.47;5095554;28;20490;-71
2023/10/26 00:55:40;;;;;;;3.45;3.00;;;;;;;12.32;94.60;96237.34;5095841;28;20403;-71
2023/10/26 00:58:06;;;;;;;3.58;3.28;;;;;;;12.28;95.23;96244.47;5106415;27;20031;-71
2023/10/26 01:00:32;;;;;;;3.90;3.50;;;;;;;12.25;94.94;96247.00;5098656;28;20486;-71
2023/10/26 01:02:57;;;;;;;4.43;4.03;;;;;;;12.20;95.59;96257.88;5105821;27;20114;-70
2023/10/26 01:05:23;;;;;;;3.75;3.42;;;;;;;12.11;96.02;96263.19;5130789;27;20107;-70
2023/10/26 01:07:49;;;;;;;4.93;4.28;;;;;;;12.10;96.14;96253.50;5113754;28;20047;-69
2023/10/26 01:10:14;;;;;;;4.10;3.67;;;;;;;11.99;96.53;96235.13;5112644;27;20023;-71
2023/10/26 01:12:40;;;;;;;2.95;2.65;;;;;;;11.95;96.37;96256.50;5115632;27;20043;-72
2023/10/26 01:15:06;;;;;;;2.70;2.50;;;;;;;12.04;95.99;96259.31;5082044;27;20111;-72
2023/10/26 01:17:34;;;;;;;2.97;2.78;;;;;;;11.94;96.62;96271.09;5115917;27;20062;-72
2023/10/26 01:19:59;;;;;;;2.70;2.50;;;;;;;11.95;96.09;96256.50;5095908;28;20430;-72
2023/10/26 01:22:29;;;;;;;2.65;2.15;;;;;;;11.88;96.25;96261.47;5071469;28;20033;-72
2023/10/26 01:24:55;;;;;;;2.50;2.30;;;;;;;11.93;95.77;96261.38;5071723;27;20050;-71
2023/10/26 01:27:20;;;;;;;2.03;1.92;;;;;;;11.87;95.63;96254.50;5115415;27;20055;-70
2023/10/26 01:29:45;;;;;;;2.30;2.13;;;;;;;11.80;95.47;96264.91;5115580;27;20482;-70
2023/10/26 01:32:11;;;;;;;2.10;2.00;;;;;;;11.72;95.97;96261.00;5098353;27;20025;-70
2023/10/26 01:34:37;;;;;;;2.17;1.98;;;;;;;11.67;95.77;96254.84;5115438;27;20027;-71
2023/10/26 01:37:05;;;;;;;2.17;2.00;;;;;;;11.69;95.81;96258.09;5098245;27;20027;-69
2023/10/26 01:39:32;;;;;;;2.20;2.00;;;;;;;11.71;96.02;96261.31;5098325;27;20383;-70
2023/10/26 01:41:57;;;;;;;2.95;2.40;;;;;;;11.72;95.29;96262.88;5114936;27;20030;-70
2023/10/26 01:44:22;;;;;;;2.05;1.95;;;;;;;11.64;95.44;96267.06;5098374;27;20039;-71
2023/10/26 01:46:49;;;;;;;3.00;2.15;;;;;;;11.61;95.22;96266.84;5098491;27;20073;-71
2023/10/26 01:49:15;;;;;;;2.20;2.10;;;;;;;11.57;95.68;96265.84;5096839;28;20067;-72
2023/10/26 01:51:40;;;;;;;2.10;2.00;;;;;;;11.58;94.83;96256.66;5077566;28;20023;-71
2023/10/26 01:54:05;;;;;;;2.30;2.10;;;;;;;11.61;94.67;96269.53;5094591;28;20031;-72
2023/10/26 01:56:31;;;;;;;2.00;1.90;;;;;;;11.61;94.06;96261.44;5112705;28;20111;-72
2023/10/26 01:58:57;;;;;;;2.40;1.80;;;;;;;11.60;94.23;96257.16;5108494;28;20028;-72
2023/10/26 02:01:24;;;;;;;2.15;2.00;;;;;;;11.64;94.34;96268.94;5084348;28;20395;-72
2023/10/26 02:03:50;;;;;;;2.60;2.00;;;;;;;11.69;93.36;96275.06;5075637;28;20034;-72
2023/10/26 02:06:16;;;;;;;2.20;2.10;;;;;;;11.70;93.17;96263.19;5100900;28;20023;-72
2023/10/26 02:08:42;;;;;;;2.50;1.95;;;;;;;11.68;93.65;96268.09;5103953;28;20040;-71
2023/10/26 02:11:07;;;;;;;2.30;2.10;;;;;;;11.71;93.25;96277.47;5068234;28;20097;-71
2023/10/26 02:13:35;;;;;;;2.80;2.13;;;;;;;11.75;93.34;96263.09;5094919;27;20038;-71
2023/10/26 02:16:02;;;;;;;1.80;1.70;;;;;;;11.70;93.10;96260.50;5098529;27;20019;-71
2023/10/26 02:18:29;;;;;;;2.35;2.22;;;;;;;11.71;92.83;96256.72;5076504;28;20514;-71
2023/10/26 02:20:54;;;;;;;2.30;2.03;;;;;;;11.82;93.03;96268.09;5068637;28;20020;-71
2023/10/26 02:23:21;;;;;;;3.45;2.30;;;;;;;11.76;92.67;96269.28;5111036;28;20055;-71
2023/10/26 02:25:47;;;;;;;1.92;1.83;;;;;;;11.77;92.45;96284.38;5074728;28;20058;-70
2023/10/26 02:28:15;;;;;;;2.00;1.90;;;;;;;11.67;91.92;96279.13;5077537;28;20063;-71
2023/10/26 02:30:43;;;;;;;2.03;1.90;;;;;;;11.67;92.04;96289.91;5112702;28;20507;-71
2023/10/26 02:33:08;;;;;;;2.58;2.38;;;;;;;11.62;91.48;96295.41;5094167;28;20023;-72
2023/10/26 02:35:34;;;;;;;3.47;2.00;;;;;;;11.50;91.58;96277.03;5112511;28;20050;-71
2023/10/26 02:37:59;;;;;;;3.30;2.00;;;;;;;11.62;91.20;96292.72;5094064;28;20036;-72
2023/10/26 02:40:25;;;;;;;2.05;1.95;;;;;;;11.55;91.40;96287.69;5094215;28;20516;-72
2023/10/26 02:42:50;;;;;;;1.98;1.88;;;;;;;11.66;91.20;96291.81;5081657;27;20118;-71
2023/10/26 02:45:15;;;;;;;2.05;1.95;;;;;;;11.66;90.38;96291.03;5114503;27;20022;-70
2023/10/26 02:47:41;;;;;;;3.28;2.05;;;;;;;11.70;90.74;96286.66;5118809;27;20456;-70
2023/10/26 02:50:07;;;;;;;3.28;2.00;;;;;;;11.73;90.49;96292.25;5100103;28;20027;-70
2023/10/26 02:52:33;;;;;;;2.25;2.00;;;;;;;11.74;89.86;96293.03;5076724;28;20039;-69
2023/10/26 02:54:58;;;;;;;2.30;2.10;;;;;;;11.64;89.81;96290.53;5071634;28;20108;-69
2023/10/26 02:57:23;;;;;;;2.50;1.70;;;;;;;11.65;89.94;96294.78;5122834;27;20028;-69
2023/10/26 02:59:49;;;;;;;3.70;2.10;;;;;;;11.70;90.05;96302.84;5081223;28;20494;-71
2023/10/26 03:02:14;;;;;;;3.17;2.13;;;;;;;11.67;90.03;96295.28;5098177;28;20053;-71
2023/10/26 03:04:40;;;;;;;2.20;2.10;;;;;;;11.72;90.12;96300.63;5114308;28;20027;-71
2023/10/26 03:07:05;;;;;;;2.67;2.00;;;;;;;11.78;89.57;96294.06;5083788;28;20042;-70
2023/10/26 03:09:30;;;;;;;2.45;2.20;;;;;;;11.76;89.83;96293.56;5105426;28;20099;-70
2023/10/26 03:11:56;;;;;;;3.00;2.20;;;;;;;11.77;89.99;96300.53;5116037;28;20032;-71
2023/10/26 03:14:21;;;;;;;2.28;2.17;;;;;;;11.74;89.88;96293.03;5116452;28;20020;-71
2023/10/26 03:16:47;;;;;;;2.60;2.40;;;;;;;11.81;89.15;96304.25;5107746;28;20424;-70
2023/10/26 03:19:12;;;;;;;2.88;2.20;;;;;;;11.84;89.32;96303.66;5071509;28;20073;-69
2023/10/26 03:21:38;;;;;;;3.95;2.38;;;;;;;11.78;89.31;96291.38;5114953;27;20035;-70
2023/10/26 03:24:04;;;;;;;3.05;2.03;;;;;;;11.84;88.79;96303.66;5104332;28;20020;-69
2023/10/26 03:26:30;;;;;;;2.40;2.20;;;;;;;11.76;88.96;96285.47;5112903;28;20027;-70
2023/10/26 03:28:55;;;;;;;2.97;1.90;;;;;;;11.69;89.07;96280.44;5097640;28;20046;-70
2023/10/26 03:31:21;;;;;;;4.07;2.50;;;;;;;11.82;88.55;96295.06;5097606;28;20035;-69
2023/10/26 03:33:46;;;;;;;2.28;2.08;;;;;;;11.67;88.35;96281.81;5093951;28;20020;-70
2023/10/26 03:36:13;;;;;;;3.05;2.10;;;;;;;11.74;88.12;96298.44;5094394;28;20554;-70
2023/10/26 03:38:38;;;;;;;2.20;2.00;;;;;;;11.76;88.44;96307.06;5097257;28;20038;-69
2023/10/26 03:41:04;;;;;;;2.42;2.13;;;;;;;11.76;88.38;96304.34;5097590;28;20402;-70
2023/10/26 03:43:29;;;;;;;2.55;2.35;;;;;;;11.70;87.96;96297.44;5076734;28;20024;-70
2023/10/26 03:45:55;;;;;;;2.63;2.30;;;;;;;11.72;88.25;96306.84;5093827;28;20085;-70
2023/10/26 03:48:20;;;;;;;2.63;2.42;;;;;;;11.71;88.37;96305.25;5105343;27;20027;-70
2023/10/26 03:50:46;;;;;;;2.30;2.10;;;;;;;11.73;88.29;96307.63;5093482;27;20478;-70
2023/10/26 03:53:11;;;;;;;2.70;2.50;;;;;;;11.75;87.82;96305.44;5135984;27;20034;-68
2023/10/26 03:55:36;;;;;;;2.42;2.22;;;;;;;11.75;88.51;96310.84;5136325;27;20027;-68
2023/10/26 03:58:02;;;;;;;3.47;2.80;;;;;;;11.73;88.55;96313.84;5136029;27;20518;-68
2023/10/26 04:00:28;;;;;;;2.92;2.70;;;;;;;11.70;88.49;96302.84;5091529;28;20039;-71
2023/10/26 04:02:53;;;;;;;3.28;2.40;;;;;;;11.72;88.26;96311.41;5079069;27;20023;-70
2023/10/26 04:05:19;;;;;;;3.50;2.30;;;;;;;11.68;88.26;96305.84;5132753;27;20050;-70
2023/10/26 04:07:44;;;;;;;4.45;2.88;;;;;;;11.64;88.13;96301.31;5106418;27;20100;-70
2023/10/26 04:10:09;;;;;;;2.97;2.65;;;;;;;11.67;88.14;96308.78;5133209;27;20034;-70
2023/10/26 04:12:35;;;;;;;3.45;2.47;;;;;;;11.60;88.33;96300.28;5124188;27;20031;-71
2023/10/26 04:15:01;;;;;;;3.60;2.80;;;;;;;11.63;88.07;96302.38;5114267;27;20409;-71
2023/10/26 04:17:26;;;;;;;3.25;2.95;;;;;;;11.58;88.68;96299.78;5107339;28;20016;-70
2023/10/26 04:19:52;;;;;;;29.20;26.30;;;;;;;11.59;88.22;96301.38;5128271;27;20042;-70
2023/10/26 04:22:17;;;;;;;16.75;14.40;;;;;;;11.45;88.21;96309.44;5114607;28;20471;-69
2023/10/26 04:24:42;;;;;;;3.65;3.13;;;;;;;11.55;88.21;96316.56;5110114;27;20039;-71
2023/10/26 04:27:08;;;;;;;61.90;48.13;;;;;;;11.50;87.67;96309.38;5113000;27;20072;-70
2023/10/26 04:29:37;;;;;;;15.35;13.80;;;;;;;11.48;88.43;96310.75;5084890;27;20032;-70
2023/10/26 04:32:03;;;;;;;22.85;21.02;;;;;;;11.44;88.02;96310.53;5107327;28;20102;-69
2023/10/26 04:34:28;;;;;;;4.68;4.28;;;;;;;11.48;87.84;96321.53;5112402;27;20126;-69
2023/10/26 04:36:53;;;;;;;4.05;3.78;;;;;;;11.43;87.84;96308.94;5126400;27;20031;-69
2023/10/26 04:39:19;;;;;;;3.30;3.00;;;;;;;11.47;87.78;96317.22;5114588;28;20028;-70
2023/10/26 04:41:44;;;;;;;3.83;3.53;;;;;;;11.41;87.70;96313.03;5092359;28;20391;-70
2023/10/26 04:44:11;;;;;;;4.03;3.70;;;;;;;11.38;88.14;96314.44;5097800;27;20040;-69
2023/10/26 04:46:37;;;;;;;3.55;3.25;;;;;;;11.23;87.98;96303.06;5107965;28;20027;-69
2023/10/26 04:49:03;;;;;;;3.58;3.30;;;;;;;11.29;87.80;96310.81;5129902;27;20541;-71
2023/10/26 04:51:29;;;;;;;3.90;3.60;;;;;;;11.30;87.89;96314.28;5088173;28;20086;-71
2023/10/26 04:53:55;;;;;;;3.78;3.35;;;;;;;11.19;88.29;96315.53;5078645;28;20105;-70
2023/10/26 04:56:20;;;;;;;5.30;3.97;;;;;;;11.21;87.98;96318.75;5096042;28;20055;-71
2023/10/26 04:58:48;;;;;;;3.63;3.33;;;;;;;11.09;87.80;96303.84;5109534;27;20038;-71
2023/10/26 05:01:13;;;;;;;4.88;4.47;;;;;;;11.04;88.54;96312.00;5070204;28;20479;-71
2023/10/26 05:03:39;;;;;;;4.05;3.70;;;;;;;11.04;88.07;96316.56;5096216;28;20043;-71
2023/10/26 05:06:04;;;;;;;4.00;3.70;;;;;;;10.90;88.81;96316.53;5105240;27;20027;-71
2023/10/26 05:08:30;;;;;;;6.75;4.80;;;;;;;10.86;89.03;96317.41;5116117;27;20114;-71
2023/10/26 05:10:55;;;;;;;7.80;5.40;;;;;;;10.91;88.80;96323.53;5115918;27;20019;-71
2023/10/26 05:13:21;;;;;;;8.13;7.13;;;;;;;10.81;88.98;96302.13;5131429;27;20050;-72
2023/10/26 05:15:48;;;;;;;6.10;5.50;;;;;;;10.92;89.33;96313.56;5075030;28;20026;-73
2023/10/26 05:18:13;;;;;;;5.22;4.72;;;;;;;10.78;88.93;96308.06;5112383;28;20394;-71
2023/10/26 05:20:39;;;;;;;4.25;3.85;;;;;;;10.90;89.17;96326.50;5088531;28;20484;-70
2023/10/26 05:23:05;;;;;;;5.28;4.78;;;;;;;10.90;89.01;96327.28;5082597;27;20040;-71
2023/10/26 05:25:31;;;;;;;6.57;3.97;;;;;;;10.86;88.39;96326.28;5134098;27;20101;-71
2023/10/26 05:27:57;;;;;;;4.88;3.95;;;;;;;10.92;88.92;96330.50;5133785;27;20038;-70
2023/10/26 05:30:22;;;;;;;8.10;7.35;;;;;;;10.94;88.64;96325.63;5134111;27;20019;-70
2023/10/26 05:32:47;;;;;;;7.70;6.13;;;;;;;10.80;88.37;96308.63;5114451;27;20035;-71
2023/10/26 05:35:14;;;;;;;8.00;7.30;;;;;;;10.90;88.28;96327.28;5133871;27;20084;-71
2023/10/26 05:37:39;;;;;;;6.50;5.80;;;;;;;10.93;88.42;96326.72;5133586;27;20042;-70
2023/10/26 05:40:05;;;;;;;7.43;5.88;;;;;;;10.89;88.38;96324.91;5115518;27;20031;-70
2023/10/26 05:42:31;;;;;;;5.22;4.72;;;;;;;10.88;88.20;96329.47;5114955;27;20035;-70
2023/10/26 05:44:56;;;;;;;5.22;3.80;;;;;;;10.76;88.04;96314.88;5115116;27;20102;-70
2023/10/26 05:47:22;;;;;;;4.75;4.35;;;;;;;10.72;87.54;96316.53;5094825;28;20044;-71
2023/10/26 05:49:48;;;;;;;5.07;4.57;;;;;;;10.74;87.81;96327.81;5090086;28;20058;-72
2023/10/26 05:52:13;;;;;;;10.65;9.60;;;;;;;10.68;87.72;96328.97;5071846;28;20038;-71
2023/10/26 05:54:38;;;;;;;72.97;49.25;;;;;;;10.75;87.60;96332.91;5090956;28;20028;-70
2023/10/26 05:57:04;;;;;;;162.15;104.15;;;;;;;10.70;87.64;96332.97;5106643;28;20031;-71
2023/10/26 05:59:29;;;;;;;231.30;140.60;;;;;;;10.71;87.57;96339.94;5093623;28;20089;-70
2023/10/26 06:01:54;;;;;;;91.22;56.85;;;;;;;10.59;87.75;96328.84;5094206;28;20032;-71
2023/10/26 06:04:20;;;;;;;162.88;101.15;;;;;;;10.66;87.98;96342.75;5074368;28;20038;-70
2023/10/26 06:06:45;;;;;;;107.10;64.05;;;;;;;10.65;88.01;96341.13;5076789;28;20615;-71
2023/10/26 06:09:11;;;;;;;84.35;54.22;;;;;;;10.61;87.50;96333.91;5113036;28;20027;-70
2023/10/26 06:11:37;;;;;;;21.05;14.93;;;;;;;10.56;88.06;96340.16;5108583;27;20043;-71
2023/10/26 06:14:03;;;;;;;9.10;6.55;;;;;;;10.52;88.10;96347.22;5103817;28;20533;-70
2023/10/26 06:16:28;;;;;;;8.93;8.02;;;;;;;10.54;87.99;96342.34;5106865;28;20027;-71
2023/10/26 06:18:54;;;;;;;8.60;7.43;;;;;;;10.48;88.29;96340.81;5089715;28;20439;-73
2023/10/26 06:21:20;;;;;;;7.03;6.00;;;;;;;10.48;88.28;96346.19;5091942;28;20024;-71
2023/10/26 06:23:46;;;;;;;4.85;4.45;;;;;;;10.43;88.05;96343.59;5088342;28;20042;-70
2023/10/26 06:26:11;;;;;;;6.30;4.78;;;;;;;10.44;88.29;96353.25;5069054;27;20041;-71
2023/10/26 06:28:37;;;;;;;5.75;5.18;;;;;;;10.46;87.95;96352.94;5098296;28;20019;-72
2023/10/26 06:31:15;;;;;;;5.38;4.80;;;;;;;10.48;87.61;96356.94;5094865;27;20037;-71
2023/10/26 06:33:41;;;;;;;6.40;5.75;;;;;;;10.48;88.11;96356.94;5095446;28;20046;-71
2023/10/26 06:36:08;;;;;;;5.85;5.35;;;;;;;10.50;87.93;96365.56;5103371;28;20023;-71
2023/10/26 06:38:34;;;;;;;6.32;5.75;;;;;;;10.38;88.12;96351.72;5093842;28;20034;-72
2023/10/26 06:40:59;;;;;;;5.70;5.13;;;;;;;10.42;88.17;96363.50;5093745;28;20023;-71
2023/10/26 06:43:24;;;;;;;5.93;5.10;;;;;;;10.40;88.01;96363.00;5093697;28;20061;-71
2023/10/26 06:45:50;;;;;;;5.57;5.07;;;;;;;10.44;87.67;96374.78;5080699;27;20114;-72
2023/10/26 06:48:18;;;;;;;8.02;5.32;;;;;;;10.38;87.81;96351.72;5114224;27;20502;-73
2023/10/26 06:50:44;;;;;;;5.50;5.00;;;;;;;10.45;87.61;96371.00;5096968;27;20356;-72
2023/10/26 06:53:11;;;;;;;5.55;4.95;;;;;;;10.54;87.65;96366.56;5110244;27;20555;-72
2023/10/26 06:55:36;;;;;;;5.82;4.97;;;;;;;10.51;87.73;96364.47;5095370;27;20023;-73
2023/10/26 06:58:02;;;;;;;5.90;5.30;;;;;;;10.54;87.59;96369.28;5113953;28;20043;-73
2023/10/26 07:00:27;;;;;;;5.70;5.15;;;;;;;10.56;87.38;96364.41;5091796;28;20066;-71
2023/10/26 07:02:52;;;;;;;6.65;6.05;;;;;;;10.59;87.48;96363.81;5076349;28;20040;-72
2023/10/26 07:05:18;;;;;;;6.32;5.47;;;;;;;10.50;87.66;96365.56;5093718;28;20026;-72
2023/10/26 07:07:44;;;;;;;6.20;5.60;;;;;;;10.53;87.44;96375.72;5111625;28;20449;-72
2023/10/26 07:10:15;;;;;;;7.80;5.85;;;;;;;10.51;88.16;96372.53;5114799;28;20015;-72
2023/10/26 07:12:44;;;;;;;5.85;5.35;;;;;;;10.58;88.01;96375.66;5097722;28;20505;-73
2023/10/26 07:15:11;;;;;;;6.13;5.53;;;;;;;10.50;87.98;96349.41;5114148;28;20385;-71
2023/10/26 07:17:36;;;;;;;6.32;5.30;;;;;;;10.60;87.95;96370.78;5113846;28;20031;-72
2023/10/26 07:20:07;;;;;;;6.15;5.30;;;;;;;10.67;87.64;96365.06;5097181;28;20025;-71
2023/10/26 07:22:33;;;;;;;7.90;7.07;;;;;;;10.47;88.16;96349.97;5113701;28;20564;-72
2023/10/26 07:24:58;;;;;;;7.70;6.88;;;;;;;10.60;88.24;96378.88;5113592;28;20031;-72
2023/10/26 07:27:23;;;;;;;7.70;7.00;;;;;;;10.69;87.92;96381.75;5106974;28;20028;-73
2023/10/26 07:29:49;;;;;;;6.38;5.88;;;;;;;10.69;87.82;96376.34;5109614;28;20027;-73
2023/10/26 07:32:14;;;;;;;6.85;6.30;;;;;;;10.67;88.52;96382.00;5093409;28;20036;-73
2023/10/26 07:34:40;;;;;;;8.63;6.70;;;;;;;10.54;88.48;96350.44;5110489;28;20073;-73
2023/10/26 07:37:06;;;;;;;7.28;6.63;;;;;;;10.78;88.27;96378.09;5093305;28;20027;-73
2023/10/26 07:39:35;;;;;;;11.05;6.63;;;;;;;10.90;88.57;96389.25;5072946;28;20059;-73
2023/10/26 07:42:01;;;;;;;8.02;7.22;;;;;;;11.04;88.71;96387.41;5092929;28;20115;-73
2023/10/26 07:44:26;;;;;;;7.97;7.20;;;;;;;10.98;88.84;96377.81;5093289;28;20107;-73
2023/10/26 07:46:52;;;;;;;7.72;6.80;;;;;;;11.19;88.53;96385.59;5075261;28;20051;-73
2023/10/26 07:49:17;;;;;;;8.18;6.88;;;;;;;11.13;87.94;96371.41;5109464;28;20020;-73
2023/10/26 07:51:43;;;;;;;6.95;5.40;;;;;;;11.13;87.98;96378.69;5091442;28;20032;-73
2023/10/26 07:54:09;;;;;;;6.07;5.13;;;;;;;11.15;87.89;96377.31;5088349;28;20535;-72
2023/10/26 07:56:35;;;;;;;5.63;5.13;;;;;;;11.11;87.51;96370.88;5104775;28;20136;-73
2023/10/26 07:59:00;;;;;;;5.72;5.22;;;;;;;11.08;87.29;96366.88;5113627;28;20491;-72
2023/10/26 08:01:26;;;;;;;5.50;5.05;;;;;;;11.17;87.28;96377.00;5102933;27;20035;-73
2023/10/26 08:03:51;;;;;;;5.85;5.35;;;;;;;11.16;87.01;96378.09;5112351;28;20023;-73
2023/10/26 08:06:16;;;;;;;7.00;5.93;;;;;;;11.22;86.92;96387.72;5093335;28;20434;-71
2023/10/26 08:08:42;;;;;;;5.68;5.07;;;;;;;11.13;86.30;96367.91;5094236;28;20061;-72
2023/10/26 08:11:12;;;;;;;5.68;4.85;;;;;;;11.22;85.49;96387.72;5079856;28;20035;-72
2023/10/26 08:13:38;;;;;;;5.28;4.85;;;;;;;11.28;85.08;96391.94;5096511;28;20036;-73
2023/10/26 08:16:04;;;;;;;6.05;5.55;;;;;;;11.30;84.28;96393.22;5096761;28;20502;-73
2023/10/26 08:18:29;;;;;;;5.50;5.00;;;;;;;11.30;84.51;96381.66;5096535;28;20044;-74
2023/10/26 08:20:55;;;;;;;5.15;4.60;;;;;;;11.43;83.88;96384.44;5076450;28;20024;-72
2023/10/26 08:23:20;;;;;;;5.90;5.18;;;;;;;11.59;83.98;96371.50;5089485;28;20044;-72
2023/10/26 08:25:47;;;;;;;7.25;5.70;;;;;;;11.59;83.81;96372.28;5087349;28;20024;-72
2023/10/26 08:28:13;;;;;;;5.78;5.15;;;;;;;11.62;82.78;96389.78;5075919;28;20086;-72
2023/10/26 08:30:38;;;;;;;5.00;4.60;;;;;;;11.60;82.48;96394.63;5105569;28;20031;-72
2023/10/26 08:33:04;;;;;;;5.32;4.82;;;;;;;11.51;81.76;96385.63;5075360;28;20514;-73
2023/10/26 08:35:32;;;;;;;4.95;4.55;;;;;;;11.48;81.66;96370.06;5087185;28;20036;-71
2023/10/26 08:37:58;;;;;;;5.32;4.82;;;;;;;11.61;81.54;96378.19;5110668;28;20494;-72
2023/10/26 08:40:23;;;;;;;6.15;5.40;;;;;;;11.58;81.59;96386.06;5113363;28;20027;-72
2023/10/26 08:42:49;;;;;;;7.00;4.60;;;;;;;11.62;81.36;96377.06;5074501;28;20047;-72
2023/10/26 08:45:26;;;;;;;4.80;4.40;;;;;;;11.67;80.30;96379.72;5068840;28;20030;-72
2023/10/26 08:47:52;;;;;;;4.60;4.20;;;;;;;11.69;81.03;96376.75;5094212;28;20487;-72
2023/10/26 08:50:23;;;;;;;5.38;4.88;;;;;;;11.74;80.49;96373.94;5074853;28;20433;-72
2023/10/26 08:52:48;;;;;;;5.63;5.07;;;;;;;11.73;80.86;96369.66;5074104;28;20040;-71
2023/10/26 08:55:14;;;;;;;5.30;4.80;;;;;;;11.75;80.40;96362.88;5087878;28;20110;-72
2023/10/26 08:57:50;;;;;;;4.97;4.55;;;;;;;11.66;80.38;96361.13;5077823;28;20450;-73
2023/10/26 09:00:16;;;;;;;4.95;4.55;;;;;;;11.72;80.72;96359.97;5094818;28;20035;-72
2023/10/26 09:02:41;;;;;;;5.80;4.65;;;;;;;11.82;81.06;96359.78;5077476;28;20027;-73
2023/10/26 09:05:08;;;;;;;5.43;4.93;;;;;;;11.87;81.24;96357.00;5090161;28;20060;-73
2023/10/26 09:07:34;;;;;;;5.10;4.70;;;;;;;11.87;80.40;96346.22;5113988;28;20019;-72
2023/10/26 09:09:59;;;;;;;5.30;4.80;;;;;;;11.97;79.73;96351.41;5115111;28;20034;-72
2023/10/26 09:12:25;;;;;;;4.82;4.43;;;;;;;11.98;79.71;96353.03;5114406;28;20536;-72
2023/10/26 09:15:06;;;;;;;5.18;4.72;;;;;;;12.09;78.97;96356.34;5133063;28;20050;-72
2023/10/26 09:17:32;;;;;;;5.45;4.40;;;;;;;12.27;79.46;96358.94;5133144;28;20506;-72
2023/10/26 09:19:57;;;;;;;5.85;5.25;;;;;;;12.33;79.46;96344.25;5097888;28;20042;-72
2023/10/26 09:22:36;;;;;;;5.60;5.05;;;;;;;12.46;78.66;96356.91;5114488;28;20077;-72
2023/10/26 09:25:07;;;;;;;5.40;4.60;;;;;;;12.32;79.01;96358.03;5114790;28;20066;-72
2023/10/26 09:27:33;;;;;;;6.63;6.03;;;;;;;12.40;78.17;96371.63;5114373;28;20046;-71
2023/10/26 09:30:00;;;;;;;7.00;5.43;;;;;;;12.43;78.59;96368.34;5095934;28;20059;-72
2023/10/26 09:32:35;;;;;;;6.18;4.50;;;;;;;12.51;78.91;96371.44;5114231;28;20037;-72
2023/10/26 09:35:02;;;;;;;5.60;4.60;;;;;;;12.54;77.96;96357.31;5097814;28;20513;-72
2023/10/26 09:37:28;;;;;;;5.43;4.90;;;;;;;12.65;78.23;96358.72;5063655;27;1448013;-73
2023/10/26 09:39:54;;;;;;;5.80;5.22;;;;;;;12.74;78.44;96360.38;5133697;27;20043;-72
2023/10/26 09:42:20;;;;;;;5.28;4.85;;;;;;;12.80;77.94;96366.50;5114954;27;20035;-72
2023/10/26 09:44:46;;;;;;;5.97;5.00;;;;;;;12.86;77.39;96368.00;5115242;27;20078;-72
2023/10/26 09:47:12;;;;;;;5.30;4.80;;;;;;;12.91;77.37;96362.47;5115400;27;20023;-73
2023/10/26 09:49:37;;;;;;;6.93;4.40;;;;;;;12.67;76.08;96356.53;5115809;27;20031;-72
2023/10/26 09:52:03;;;;;;;5.22;4.72;;;;;;;12.85;75.43;96372.59;5115189;27;20478;-72
2023/10/26 09:54:33;;;;;;;4.80;4.30;;;;;;;12.94;75.57;96378.88;5098148;27;20168;-73
2023/10/26 09:57:11;;;;;;;7.72;4.80;;;;;;;13.03;75.05;96395.16;5115239;27;20042;-72
2023/10/26 09:59:36;;;;;;;5.35;4.43;;;;;;;13.05;74.43;96387.53;5103910;28;20377;-72
2023/10/26 10:02:18;;;;;;;5.00;4.00;;;;;;;13.08;73.26;96392.38;5090697;28;20034;-73
2023/10/26 10:04:44;;;;;;;4.45;3.17;;;;;;;12.92;73.73;96388.38;5112887;28;20027;-72
2023/10/26 10:07:09;;;;;;;3.67;3.33;;;;;;;12.92;73.23;96389.19;5074102;28;20407;-72
2023/10/26 10:10:06;;;;;;;3.50;3.20;;;;;;;12.91;73.03;96387.56;5103684;28;20056;-72
2023/10/26 10:12:33;;;;;;;2.90;2.55;;;;;;;12.94;73.59;96388.88;5082788;28;20036;-72
2023/10/26 10:15:03;;;;;;;2.65;2.30;;;;;;;13.03;74.12;96382.47;5074860;28;20019;-72
2023/10/26 10:17:44;;;;;;;2.90;2.08;;;;;;;13.00;73.41;96390.34;5073811;28;20673;-71
2023/10/26 10:20:18;;;;;;;3.20;2.30;;;;;;;13.01;73.50;96391.97;5091922;28;20127;-72
2023/10/26 10:22:44;;;;;;;2.08;1.90;;;;;;;12.99;74.06;96383.38;5112057;28;20038;-72
2023/10/26 10:25:10;;;;;;;1.98;1.80;;;;;;;12.89;73.44;96378.97;5093232;28;20035;-72
2023/10/26 10:27:39;;;;;;;2.00;1.80;;;;;;;12.84;74.18;96392.59;5085998;28;20039;-71
2023/10/26 10:30:08;;;;;;;2.17;1.73;;;;;;;12.74;74.18;96397.44;5077012;28;20034;-72
2023/10/26 10:32:52;;;;;;;3.28;1.52;;;;;;;12.80;73.84;96388.09;5093926;28;20035;-73
2023/10/26 10:35:21;;;;;;;1.92;1.67;;;;;;;12.76;74.29;96384.41;5112183;28;20059;-72
2023/10/26 10:38:11;;;;;;;1.58;1.23;;;;;;;12.75;73.63;96378.22;5112027;28;20099;-72
2023/10/26 10:40:38;;;;;;;1.60;1.50;;;;;;;12.93;74.47;96387.25;5112243;28;20045;-72
2023/10/26 10:43:04;;;;;;;2.22;1.38;;;;;;;12.99;73.95;96378.78;5101360;28;20023;-72
2023/10/26 10:45:29;;;;;;;1.35;1.25;;;;;;;13.16;74.01;96372.75;5099492;28;20031;-72
2023/10/26 10:47:54;;;;;;;1.60;1.50;;;;;;;13.15;73.19;96363.03;5114367;27;20431;-73
2023/10/26 10:50:21;;;;;;;1.30;1.20;;;;;;;13.45;73.31;96358.81;5049242;28;20090;-72
2023/10/26 10:52:53;;;;;;;1.30;1.20;;;;;;;13.64;72.68;96357.53;5087060;27;20031;-72
2023/10/26 10:55:29;;;;;;;1.45;1.23;;;;;;;13.84;72.73;96362.41;5114624;27;20035;-72
2023/10/26 10:57:58;;;;;;;;;;;;;;;13.59;71.84;96371.16;5114915;27;20031;-72
2023/10/26 11:00:25;;;;;;;1.13;1.10;;;;;;;13.85;71.64;96364.03;5092336;28;19912;-72
2023/10/26 11:02:52;;;;;;;1.45;1.20;;;;;;;13.87;72.39;96366.41;5093589;28;20507;-72
2023/10/26 11:05:18;;;;;;;1.50;1.40;;;;;;;13.66;71.90;96366.13;5094283;28;20027;-72
2023/10/26 11:07:43;;;;;;;1.85;1.10;;;;;;;13.88;72.46;96380.75;5073631;28;20039;-73
2023/10/26 11:10:09;;;;;;;1.45;1.35;;;;;;;13.65;72.14;96363.75;5090002;28;20023;-72
2023/10/26 11:12:34;;;;;;;1.95;1.00;;;;;;;13.58;72.36;96374.97;5093272;28;20046;-72
2023/10/26 11:15:00;;;;;;;2.08;1.15;;;;;;;13.67;73.00;96365.03;5111942;28;20031;-72
2023/10/26 11:17:27;;;;;;;1.95;1.38;;;;;;;13.57;73.18;96367.16;5090178;28;20051;-72
2023/10/26 11:19:53;;;;;;;1.40;1.30;;;;;;;13.32;73.24;96371.28;5089867;28;20514;-71
2023/10/26 11:22:19;;;;;;;1.40;1.30;;;;;;;13.38;73.73;96372.75;5072833;28;20108;-72
2023/10/26 11:24:45;;;;;;;1.90;1.67;;;;;;;13.24;74.23;96374.72;5090043;28;20031;-72
2023/10/26 11:27:18;;;;;;;1.60;1.50;;;;;;;13.29;74.68;96381.91;5093517;28;20106;-72
2023/10/26 11:29:46;;;;;;;2.95;1.67;;;;;;;13.14;74.97;96381.16;5094076;28;20035;-73